createdAt,value
2022-12-29T00:00:05.395Z,56.90
2022-12-29T00:02:32.040Z,57.10
2022-12-29T00:04:58.626Z,57.00
2022-12-29T00:07:25.194Z,57.70
2022-12-29T00:09:51.788Z,57.10
2022-12-29T00:12:18.390Z,57.00
2022-12-29T00:15:03.876Z,57.00
2022-12-29T00:17:30.833Z,56.70
2022-12-29T00:20:16.327Z,57.20
2022-12-29T00:23:03.044Z,57.20
2022-12-29T00:26:04.989Z,57.10
2022-12-29T00:28:50.112Z,57.10
2022-12-29T00:31:35.299Z,57.10
2022-12-29T00:34:22.533Z,57.20
2022-12-29T00:36:49.255Z,57.40
2022-12-29T00:39:36.310Z,57.20
2022-12-29T00:42:25.394Z,57.10
2022-12-29T00:44:52.076Z,56.90
2022-12-29T00:47:18.753Z,56.90
2022-12-29T00:49:45.412Z,57.00
2022-12-29T00:52:13.366Z,57.10
2022-12-29T00:54:41.061Z,57.00
2022-12-29T00:57:09.074Z,57.00
2022-12-29T00:59:36.546Z,57.40
2022-12-29T01:02:03.215Z,57.10
2022-12-29T01:04:29.990Z,57.10
2022-12-29T01:06:56.606Z,57.70
2022-12-29T01:09:41.970Z,57.20
2022-12-29T01:12:08.978Z,57.10
2022-12-29T01:14:36.063Z,57.10
2022-12-29T01:17:02.602Z,57.10
2022-12-29T01:19:29.193Z,57.10
2022-12-29T01:21:55.927Z,57.20
2022-12-29T01:24:23.062Z,57.20
2022-12-29T01:26:49.842Z,57.10
2022-12-29T01:29:16.438Z,57.20
2022-12-29T01:31:43.803Z,57.70
2022-12-29T01:34:10.475Z,57.20
2022-12-29T01:36:37.104Z,57.30
2022-12-29T01:39:03.751Z,57.20
2022-12-29T01:41:30.547Z,57.20
2022-12-29T01:44:00.077Z,57.20
2022-12-29T01:46:26.658Z,57.00
2022-12-29T01:48:59.334Z,57.20
2022-12-29T01:51:26.861Z,57.20
2022-12-29T01:53:54.278Z,57.20
2022-12-29T01:56:21.331Z,57.40
2022-12-29T01:58:49.460Z,57.10
2022-12-29T02:01:17.315Z,57.20
2022-12-29T02:03:44.899Z,57.40
2022-12-29T02:06:13.361Z,57.30
2022-12-29T02:08:41.605Z,57.20
2022-12-29T02:11:08.534Z,57.20
2022-12-29T02:13:35.121Z,57.10
2022-12-29T02:16:01.772Z,57.10
2022-12-29T02:18:44.904Z,57.20
2022-12-29T02:21:38.882Z,57.30
2022-12-29T02:24:18.191Z,57.20
2022-12-29T02:26:48.005Z,57.00
2022-12-29T02:29:23.778Z,57.20
2022-12-29T02:31:59.761Z,57.20
2022-12-29T02:34:33.445Z,57.20
2022-12-29T02:37:00.282Z,57.20
2022-12-29T02:39:41.736Z,57.00
2022-12-29T02:42:19.095Z,57.10
2022-12-29T02:44:55.065Z,57.10
2022-12-29T02:47:21.579Z,57.10
2022-12-29T02:49:48.139Z,57.20
2022-12-29T02:52:19.230Z,57.00
2022-12-29T02:54:45.900Z,57.00
2022-12-29T02:57:13.876Z,57.60
2022-12-29T02:59:41.404Z,57.10
2022-12-29T03:02:31.839Z,57.10
2022-12-29T03:05:16.709Z,57.10
2022-12-29T03:07:52.955Z,57.10
2022-12-29T03:10:28.581Z,57.00
2022-12-29T03:13:32.738Z,57.00
2022-12-29T03:16:08.179Z,57.10
2022-12-29T03:18:53.662Z,57.10
2022-12-29T03:21:49.405Z,56.90
2022-12-29T03:24:16.793Z,56.90
2022-12-29T03:26:46.803Z,57.00
2022-12-29T03:29:14.885Z,57.20
2022-12-29T03:31:42.528Z,57.00
2022-12-29T03:34:10.248Z,56.90
2022-12-29T03:36:45.298Z,57.00
2022-12-29T03:39:13.170Z,57.10
2022-12-29T03:41:42.168Z,57.00
2022-12-29T03:44:08.907Z,57.00
2022-12-29T03:46:35.587Z,57.00
2022-12-29T03:49:02.271Z,56.90
2022-12-29T03:51:28.833Z,57.00
2022-12-29T03:53:55.447Z,57.10
2022-12-29T03:56:22.028Z,57.00
2022-12-29T03:58:48.594Z,56.90
2022-12-29T04:01:15.323Z,57.00
2022-12-29T04:03:42.102Z,56.90
2022-12-29T04:06:09.068Z,57.00
2022-12-29T04:08:35.628Z,57.10
2022-12-29T04:11:02.230Z,57.10
2022-12-29T04:13:28.807Z,57.00
2022-12-29T04:15:55.409Z,57.20
2022-12-29T04:18:21.985Z,57.00
2022-12-29T04:21:00.709Z,56.80
2022-12-29T04:23:31.448Z,56.90
2022-12-29T04:25:58.042Z,56.70
2022-12-29T04:28:24.729Z,56.80
2022-12-29T04:30:51.954Z,56.90
2022-12-29T04:33:18.924Z,56.90
2022-12-29T04:35:45.902Z,56.80
2022-12-29T04:38:12.805Z,56.80
2022-12-29T04:40:40.592Z,56.80
2022-12-29T04:43:07.404Z,56.80
2022-12-29T04:45:34.247Z,56.90
2022-12-29T04:48:01.380Z,56.90
2022-12-29T04:50:28.020Z,56.90
2022-12-29T04:52:54.746Z,57.20
2022-12-29T04:55:21.316Z,56.90
2022-12-29T04:57:47.920Z,57.00
2022-12-29T05:00:14.701Z,57.10
2022-12-29T05:02:41.458Z,57.60
2022-12-29T05:05:08.403Z,56.90
2022-12-29T05:07:35.113Z,56.90
2022-12-29T05:10:01.863Z,57.00
2022-12-29T05:12:35.181Z,57.00
2022-12-29T05:15:03.632Z,57.10
2022-12-29T05:17:30.404Z,57.10
2022-12-29T05:19:57.019Z,57.10
2022-12-29T05:22:23.870Z,57.20
2022-12-29T05:24:50.430Z,57.20
2022-12-29T05:27:17.030Z,57.20
2022-12-29T05:29:44.025Z,57.20
2022-12-29T05:32:10.757Z,57.10
2022-12-29T05:34:37.337Z,57.30
2022-12-29T05:37:03.938Z,57.40
2022-12-29T05:39:30.563Z,57.00
2022-12-29T05:41:57.144Z,57.00
2022-12-29T05:44:23.919Z,57.00
2022-12-29T05:46:50.658Z,57.10
2022-12-29T05:49:17.485Z,57.20
2022-12-29T05:51:45.060Z,57.30
2022-12-29T05:54:11.645Z,57.20
2022-12-29T05:56:38.223Z,57.20
2022-12-29T05:59:04.899Z,57.20
2022-12-29T06:01:31.515Z,57.50
2022-12-29T06:03:58.235Z,57.20
2022-12-29T06:06:24.910Z,57.30
2022-12-29T06:08:51.494Z,57.20
2022-12-29T06:11:18.229Z,57.20
2022-12-29T06:13:44.812Z,57.20
2022-12-29T06:16:11.554Z,57.80
2022-12-29T06:18:38.190Z,57.10
2022-12-29T06:21:05.724Z,57.30
2022-12-29T06:23:32.373Z,57.50
2022-12-29T06:25:58.974Z,57.50
2022-12-29T06:28:25.653Z,57.20
2022-12-29T06:30:52.208Z,57.30
2022-12-29T06:33:18.930Z,57.40
2022-12-29T06:35:46.700Z,57.20
2022-12-29T06:38:13.368Z,57.30
2022-12-29T06:40:40.549Z,57.40
2022-12-29T06:43:07.108Z,57.30
2022-12-29T06:45:33.834Z,57.20
2022-12-29T06:48:00.543Z,57.40
2022-12-29T06:50:27.129Z,57.50
2022-12-29T06:52:53.689Z,57.50
2022-12-29T06:55:20.270Z,57.30
2022-12-29T06:57:47.527Z,57.40
2022-12-29T07:00:16.960Z,57.50
2022-12-29T07:02:47.624Z,57.40
2022-12-29T07:05:14.679Z,57.60
2022-12-29T07:07:41.249Z,57.30
2022-12-29T07:10:08.057Z,57.60
2022-12-29T07:12:34.636Z,57.40
2022-12-29T07:15:01.211Z,57.60
2022-12-29T07:17:27.787Z,57.70
2022-12-29T07:19:54.421Z,57.70
2022-12-29T07:22:20.993Z,57.70
2022-12-29T07:24:47.581Z,57.50
2022-12-29T07:27:14.271Z,57.50
2022-12-29T07:29:41.006Z,57.50
2022-12-29T07:32:07.677Z,57.90
2022-12-29T07:34:34.347Z,57.50
2022-12-29T07:37:00.921Z,57.70
2022-12-29T07:39:27.509Z,57.40
2022-12-29T07:41:56.174Z,57.50
2022-12-29T07:44:26.181Z,57.60
2022-12-29T07:46:56.060Z,57.60
2022-12-29T07:49:23.969Z,57.40
2022-12-29T07:51:50.561Z,58.00
2022-12-29T07:54:19.382Z,58.00
2022-12-29T07:56:46.357Z,57.80
2022-12-29T07:59:15.915Z,57.80
2022-12-29T08:01:42.771Z,57.70
2022-12-29T08:04:10.088Z,57.60
2022-12-29T08:06:36.725Z,57.30
2022-12-29T08:09:11.376Z,57.60
2022-12-29T08:11:41.559Z,57.40
2022-12-29T08:14:08.258Z,57.50
2022-12-29T08:16:35.215Z,57.30
2022-12-29T08:19:01.894Z,57.30
2022-12-29T08:21:28.875Z,57.40
2022-12-29T08:23:55.604Z,57.60
2022-12-29T08:26:22.727Z,57.60
2022-12-29T08:28:53.165Z,57.70
2022-12-29T08:31:19.804Z,58.00
2022-12-29T08:33:46.434Z,57.80
2022-12-29T08:36:13.014Z,57.80
2022-12-29T08:38:39.586Z,57.80
2022-12-29T08:41:06.178Z,57.60
2022-12-29T08:43:32.763Z,57.80
2022-12-29T08:46:00.080Z,57.70
2022-12-29T08:48:27.536Z,57.80
2022-12-29T08:50:54.294Z,57.80
2022-12-29T08:53:20.947Z,58.10
2022-12-29T08:55:48.304Z,57.90
2022-12-29T08:58:15.689Z,57.90
2022-12-29T09:00:42.726Z,58.10
2022-12-29T09:03:09.533Z,58.00
2022-12-29T09:05:36.400Z,58.20
2022-12-29T09:08:03.009Z,57.80
2022-12-29T09:10:29.599Z,57.90
2022-12-29T09:12:56.192Z,57.90
2022-12-29T09:15:22.793Z,57.90
2022-12-29T09:17:49.452Z,58.10
2022-12-29T09:20:17.686Z,58.00
2022-12-29T09:22:44.959Z,58.00
2022-12-29T09:25:12.017Z,58.00
2022-12-29T09:27:39.384Z,58.20
2022-12-29T09:30:07.411Z,58.30
2022-12-29T09:32:35.334Z,58.20
2022-12-29T09:35:04.829Z,58.50
2022-12-29T09:37:31.387Z,58.20
2022-12-29T09:39:58.235Z,58.00
2022-12-29T09:42:36.005Z,58.10
2022-12-29T09:45:08.668Z,58.40
2022-12-29T09:47:35.341Z,58.30
2022-12-29T09:50:04.967Z,58.20
2022-12-29T09:52:41.515Z,58.30
2022-12-29T09:55:16.862Z,58.30
2022-12-29T09:57:49.476Z,57.90
2022-12-29T10:00:20.956Z,58.10
2022-12-29T10:02:50.267Z,58.20
2022-12-29T10:05:24.568Z,58.40
2022-12-29T10:07:56.288Z,58.20
2022-12-29T10:10:31.134Z,58.90
2022-12-29T10:12:57.764Z,58.80
2022-12-29T10:15:32.927Z,58.70
2022-12-29T10:18:19.321Z,58.50
2022-12-29T10:21:05.007Z,58.50
2022-12-29T10:23:45.875Z,58.40
2022-12-29T10:26:16.862Z,58.30
2022-12-29T10:28:43.836Z,58.30
2022-12-29T10:31:14.260Z,58.40
2022-12-29T10:33:42.272Z,58.40
2022-12-29T10:36:27.403Z,58.40
2022-12-29T10:38:59.329Z,58.40
2022-12-29T10:41:32.827Z,58.60
2022-12-29T10:44:01.188Z,58.60
2022-12-29T10:46:33.971Z,60.20
2022-12-29T10:49:00.720Z,60.80
2022-12-29T10:51:29.743Z,63.90
2022-12-29T10:54:03.228Z,62.30
2022-12-29T10:56:37.342Z,61.50
2022-12-29T10:59:11.488Z,60.60
2022-12-29T11:01:40.695Z,59.90
2022-12-29T11:04:30.588Z,59.90
2022-12-29T11:06:57.515Z,59.50
2022-12-29T11:09:41.438Z,59.40
2022-12-29T11:12:23.193Z,59.60
2022-12-29T11:15:02.437Z,59.40
2022-12-29T11:17:28.994Z,59.70
2022-12-29T11:19:55.551Z,59.40
2022-12-29T11:22:27.879Z,59.50
2022-12-29T11:24:55.299Z,59.50
2022-12-29T11:27:23.901Z,59.50
2022-12-29T11:29:51.108Z,59.40
2022-12-29T11:32:28.212Z,59.70
2022-12-29T11:34:55.290Z,59.70
2022-12-29T11:37:31.295Z,59.80
2022-12-29T11:39:57.982Z,59.70
2022-12-29T11:42:38.429Z,59.40
2022-12-29T11:45:10.955Z,59.60
2022-12-29T11:47:38.034Z,59.80
2022-12-29T11:50:06.430Z,59.90
2022-12-29T11:52:36.086Z,59.80
2022-12-29T11:55:04.323Z,59.50
2022-12-29T11:57:33.651Z,60.80
2022-12-29T12:00:01.483Z,59.60
2022-12-29T12:02:40.525Z,60.40
2022-12-29T12:05:11.742Z,59.80
2022-12-29T12:07:43.317Z,59.60
2022-12-29T12:10:17.635Z,59.60
2022-12-29T12:12:50.286Z,59.60
2022-12-29T12:15:32.449Z,59.50
2022-12-29T12:18:13.939Z,59.40
2022-12-29T12:20:50.861Z,59.50
2022-12-29T12:23:33.436Z,59.20
2022-12-29T12:26:02.957Z,59.30
2022-12-29T12:28:36.879Z,59.50
2022-12-29T12:31:07.312Z,59.50
2022-12-29T12:33:42.294Z,59.40
2022-12-29T12:36:15.267Z,59.40
2022-12-29T12:38:41.883Z,59.20
2022-12-29T12:41:21.685Z,59.00
2022-12-29T12:44:07.697Z,59.00
2022-12-29T12:46:50.991Z,59.20
2022-12-29T12:49:20.675Z,59.20
2022-12-29T12:52:20.930Z,59.40
2022-12-29T12:54:47.470Z,59.30
2022-12-29T12:57:17.125Z,60.80
2022-12-29T12:59:46.842Z,59.20
2022-12-29T13:02:37.821Z,59.30
2022-12-29T13:05:26.844Z,59.50
2022-12-29T13:07:53.836Z,59.60
2022-12-29T13:10:29.275Z,59.60
2022-12-29T13:12:56.178Z,59.50
2022-12-29T13:15:41.767Z,60.50
2022-12-29T13:18:29.732Z,59.70
2022-12-29T13:20:56.340Z,60.00
2022-12-29T13:23:24.403Z,59.70
2022-12-29T13:25:54.194Z,59.80
2022-12-29T13:28:30.305Z,60.20
2022-12-29T13:30:59.880Z,60.30
2022-12-29T13:33:29.711Z,60.20
2022-12-29T13:36:00.942Z,60.40
2022-12-29T13:38:30.493Z,60.40
2022-12-29T13:41:00.091Z,60.10
2022-12-29T13:43:28.171Z,60.30
2022-12-29T13:46:05.496Z,60.50
2022-12-29T13:48:50.480Z,60.20
2022-12-29T13:51:20.212Z,59.90
2022-12-29T13:54:02.272Z,60.00
2022-12-29T13:56:35.460Z,60.00
2022-12-29T13:59:10.664Z,60.30
2022-12-29T14:01:49.395Z,59.90
2022-12-29T14:04:22.768Z,60.00
2022-12-29T14:07:00.021Z,59.70
2022-12-29T14:09:44.092Z,60.10
2022-12-29T14:12:20.645Z,59.90
2022-12-29T14:14:47.245Z,59.90
2022-12-29T14:17:18.925Z,60.10
2022-12-29T14:19:46.176Z,60.00
2022-12-29T14:22:13.407Z,59.90
2022-12-29T14:24:44.469Z,59.90
2022-12-29T14:27:11.002Z,59.80
2022-12-29T14:29:40.626Z,59.80
2022-12-29T14:32:25.461Z,59.90
2022-12-29T14:34:53.336Z,59.70
2022-12-29T14:37:27.303Z,59.80
2022-12-29T14:40:12.535Z,59.80
2022-12-29T14:42:41.228Z,59.70
2022-12-29T14:45:09.220Z,59.80
2022-12-29T14:47:37.809Z,59.60
2022-12-29T14:50:24.461Z,59.50
2022-12-29T14:53:02.985Z,59.70
2022-12-29T14:55:30.464Z,59.60
2022-12-29T14:58:11.971Z,59.60
2022-12-29T15:00:40.792Z,59.70
2022-12-29T15:03:09.076Z,59.50
2022-12-29T15:05:44.779Z,59.70
2022-12-29T15:08:12.377Z,59.70
2022-12-29T15:10:44.948Z,59.70
2022-12-29T15:13:16.407Z,59.40
2022-12-29T15:15:42.997Z,59.10
2022-12-29T15:18:21.563Z,58.80
2022-12-29T15:20:51.378Z,58.90
2022-12-29T15:23:18.217Z,58.80
2022-12-29T15:25:50.604Z,58.90
2022-12-29T15:28:17.991Z,59.00
2022-12-29T15:30:54.881Z,58.80
2022-12-29T15:33:27.027Z,58.90
2022-12-29T15:35:54.367Z,59.00
2022-12-29T15:38:34.562Z,58.90
2022-12-29T15:41:07.478Z,59.00
2022-12-29T15:43:40.582Z,59.20
2022-12-29T15:46:11.496Z,59.20
2022-12-29T15:48:39.499Z,59.10
2022-12-29T15:51:16.812Z,59.10
2022-12-29T15:53:46.909Z,59.00
2022-12-29T15:56:13.564Z,59.30
2022-12-29T15:58:49.512Z,59.30
2022-12-29T16:01:21.109Z,59.10
2022-12-29T16:03:48.147Z,59.50
2022-12-29T16:06:34.338Z,59.10
2022-12-29T16:09:08.063Z,59.40
2022-12-29T16:11:34.677Z,59.30
2022-12-29T16:14:02.102Z,59.50
2022-12-29T16:16:30.812Z,59.30
2022-12-29T16:18:58.571Z,59.20
2022-12-29T16:21:28.296Z,59.30
2022-12-29T16:23:55.973Z,59.60
2022-12-29T16:26:24.225Z,59.50
2022-12-29T16:28:52.336Z,59.20
2022-12-29T16:31:23.528Z,59.50
2022-12-29T16:33:54.275Z,59.30
2022-12-29T16:36:30.186Z,59.20
2022-12-29T16:39:15.006Z,59.40
2022-12-29T16:41:41.635Z,59.30
2022-12-29T16:44:21.915Z,59.30
2022-12-29T16:47:02.849Z,59.40
2022-12-29T16:49:30.906Z,59.40
2022-12-29T16:51:57.849Z,59.30
2022-12-29T16:54:36.169Z,59.40
2022-12-29T16:57:03.285Z,59.30
2022-12-29T16:59:34.421Z,59.30
2022-12-29T17:02:02.680Z,59.30
2022-12-29T17:04:29.955Z,59.10
2022-12-29T17:06:56.511Z,59.20
2022-12-29T17:09:24.757Z,59.20
2022-12-29T17:12:00.396Z,59.30
2022-12-29T17:14:43.848Z,59.30
2022-12-29T17:17:14.671Z,59.30
2022-12-29T17:19:43.102Z,59.00
2022-12-29T17:22:28.309Z,59.10
2022-12-29T17:24:56.002Z,59.30
2022-12-29T17:27:24.921Z,59.30
2022-12-29T17:29:52.515Z,59.20
2022-12-29T17:32:19.319Z,58.80
2022-12-29T17:34:45.906Z,58.70
2022-12-29T17:37:18.535Z,58.90
2022-12-29T17:39:45.115Z,58.90
2022-12-29T17:42:11.947Z,58.90
2022-12-29T17:44:38.531Z,58.80
2022-12-29T17:47:05.098Z,58.80
2022-12-29T17:49:31.767Z,58.70
2022-12-29T17:51:58.366Z,58.00
2022-12-29T17:54:26.065Z,58.70
2022-12-29T17:56:52.663Z,58.70
2022-12-29T17:59:19.715Z,58.70
2022-12-29T18:01:47.040Z,58.80
2022-12-29T18:04:14.909Z,59.60
2022-12-29T18:06:41.748Z,58.80
2022-12-29T18:09:10.547Z,58.70
2022-12-29T18:11:41.032Z,58.60
2022-12-29T18:14:25.770Z,58.60
2022-12-29T18:16:52.344Z,58.50
2022-12-29T18:19:18.929Z,58.70
2022-12-29T18:21:45.561Z,58.70
2022-12-29T18:24:13.952Z,58.80
2022-12-29T18:26:40.667Z,58.60
2022-12-29T18:29:07.237Z,58.70
2022-12-29T18:31:34.324Z,58.70
2022-12-29T18:34:01.899Z,58.90
2022-12-29T18:36:29.020Z,58.60
2022-12-29T18:38:55.698Z,58.50
2022-12-29T18:41:23.696Z,58.70
2022-12-29T18:43:50.329Z,58.50
2022-12-29T18:46:22.306Z,58.70
2022-12-29T18:48:49.559Z,58.70
2022-12-29T18:51:17.473Z,58.60
2022-12-29T18:53:44.542Z,58.50
2022-12-29T18:56:11.286Z,58.60
2022-12-29T18:58:38.787Z,58.60
2022-12-29T19:01:05.905Z,58.50
2022-12-29T19:03:32.783Z,58.60
2022-12-29T19:06:00.287Z,58.80
2022-12-29T19:08:26.954Z,58.70
2022-12-29T19:10:53.552Z,58.50
2022-12-29T19:13:28.971Z,58.40
2022-12-29T19:15:57.326Z,58.30
2022-12-29T19:21:11.825Z,58.20
2022-12-29T19:23:38.615Z,58.30
2022-12-29T19:26:05.283Z,58.40
2022-12-29T19:28:31.850Z,58.50
2022-12-29T19:30:59.800Z,58.60
2022-12-29T19:33:26.628Z,58.40
2022-12-29T19:35:53.371Z,58.40
2022-12-29T19:38:20.273Z,58.30
2022-12-29T19:40:49.126Z,58.80
2022-12-29T19:43:15.775Z,58.60
2022-12-29T19:45:43.475Z,58.70
2022-12-29T19:48:14.837Z,58.50
2022-12-29T19:50:41.737Z,58.60
2022-12-29T19:53:08.332Z,59.20
2022-12-29T19:55:35.239Z,58.80
2022-12-29T19:58:02.097Z,58.70
2022-12-29T20:00:28.768Z,58.70
2022-12-29T20:02:55.460Z,59.40
2022-12-29T20:05:22.320Z,58.70
2022-12-29T20:07:48.968Z,58.80
2022-12-29T20:10:15.565Z,58.50
2022-12-29T20:12:42.689Z,58.70
2022-12-29T20:15:10.935Z,58.40
2022-12-29T20:18:11.851Z,58.70
2022-12-29T20:20:24.649Z,58.50
2022-12-29T20:22:51.239Z,58.70
2022-12-29T20:25:44.248Z,58.50
2022-12-29T20:28:04.544Z,58.70
2022-12-29T20:30:31.702Z,58.80
2022-12-29T20:32:59.525Z,59.50
2022-12-29T20:35:27.679Z,58.70
2022-12-29T20:37:54.363Z,59.30
2022-12-29T20:40:20.996Z,58.50
2022-12-29T20:42:47.606Z,58.50
2022-12-29T20:45:14.163Z,58.40
2022-12-29T20:47:40.795Z,58.60
2022-12-29T20:50:07.478Z,58.80
2022-12-29T20:52:34.136Z,58.70
2022-12-29T20:55:00.707Z,58.70
2022-12-29T20:57:27.401Z,59.20
2022-12-29T20:59:54.042Z,58.80
2022-12-29T21:02:21.815Z,58.30
2022-12-29T21:07:35.413Z,58.30
2022-12-29T21:10:02.135Z,58.20
2022-12-29T21:12:28.751Z,58.30
2022-12-29T21:14:55.372Z,58.10
2022-12-29T21:17:22.116Z,58.10
2022-12-29T21:19:48.774Z,58.30
2022-12-29T21:22:15.483Z,58.50
2022-12-29T21:24:42.198Z,58.00
2022-12-29T21:27:08.822Z,58.20
2022-12-29T21:29:35.496Z,58.30
2022-12-29T21:32:06.754Z,58.20
2022-12-29T21:34:34.777Z,58.10
2022-12-29T21:37:01.480Z,58.00
2022-12-29T21:39:28.160Z,58.70
2022-12-29T21:42:00.206Z,57.90
2022-12-29T21:44:45.951Z,57.90
2022-12-29T21:47:13.503Z,58.20
2022-12-29T21:49:40.133Z,58.10
2022-12-29T21:52:06.778Z,58.40
2022-12-29T21:54:52.116Z,58.60
2022-12-29T21:57:37.581Z,57.80
2022-12-29T22:00:24.076Z,58.20
2022-12-29T22:03:12.888Z,58.10
2022-12-29T22:06:03.999Z,58.20
2022-12-29T22:08:49.508Z,57.80
2022-12-29T22:11:34.906Z,57.80
2022-12-29T22:14:01.593Z,57.90
2022-12-29T22:16:28.339Z,57.90
2022-12-29T22:18:55.264Z,57.90
2022-12-29T22:21:21.913Z,57.80
2022-12-29T22:23:48.489Z,57.70
2022-12-29T22:26:15.389Z,57.80
2022-12-29T22:28:43.404Z,57.70
2022-12-29T22:31:21.886Z,57.70
2022-12-29T22:33:48.528Z,57.70
2022-12-29T22:36:15.108Z,57.60
2022-12-29T22:38:41.689Z,58.00
2022-12-29T22:41:08.252Z,57.70
2022-12-29T22:43:34.835Z,57.60
2022-12-29T22:46:02.155Z,57.60
2022-12-29T22:48:30.866Z,58.30
2022-12-29T22:50:57.438Z,58.20
2022-12-29T22:53:24.095Z,57.60
2022-12-29T22:55:50.674Z,58.10
2022-12-29T22:58:17.256Z,58.10
2022-12-29T23:00:43.910Z,57.60
2022-12-29T23:03:11.035Z,57.60
2022-12-29T23:05:37.829Z,57.60
2022-12-29T23:08:04.556Z,57.50
2022-12-29T23:10:31.166Z,57.30
2022-12-29T23:12:57.804Z,57.70
2022-12-29T23:15:24.365Z,57.80
2022-12-29T23:17:50.991Z,57.10
2022-12-29T23:20:17.585Z,56.80
2022-12-29T23:22:44.187Z,57.30
2022-12-29T23:25:10.768Z,57.20
2022-12-29T23:27:37.440Z,57.10
2022-12-29T23:30:04.254Z,57.50
2022-12-29T23:32:30.808Z,57.20
2022-12-29T23:34:57.419Z,57.20
2022-12-29T23:37:24.020Z,57.60
2022-12-29T23:39:50.591Z,57.60
2022-12-29T23:42:17.163Z,57.80
2022-12-29T23:44:43.837Z,58.00
2022-12-29T23:47:10.445Z,57.10
2022-12-29T23:49:36.999Z,57.10
2022-12-29T23:52:03.545Z,57.60
2022-12-29T23:54:30.093Z,57.30
2022-12-29T23:56:56.688Z,57.80
2022-12-29T23:59:23.289Z,57.20
